East Lawrenceville, Pennsylvania
Current Conditions -  °F | °C
As of 1:53 PM on Thursday 30 Oct 2014 (Local Time) from KELM Reporting Station
Overcast Overcast  
Wind Chill: 47°   Ceiling: 4200
Heat Index: 49°   Visibility: 10mi
Dew Point: 35°   Wind: 6mph
Humidity: 59%   Direction: 310°NW
Pressure: 30.03"   Gusts: NA
Location:  41.971°N, 77.1237°W
Report Text: KELM 301753Z 31005KT 10SM OVC042 09/02 A3003 RMK AO2 SLP172 T00940017 10094 20011 $
Loading
Personal Weather Stations






























Interactive Weather Map New forecast layout! Learn more

10-Day Weather Forecast

Advertisements
Track Severe Weather on mobile